createdAt,value
2019-02-27T00:00:23.702Z,0.00
2019-02-27T00:01:23.659Z,0.00
2019-02-27T00:02:23.634Z,0.00
2019-02-27T00:03:23.597Z,0.00
2019-02-27T00:04:23.563Z,0.00
2019-02-27T00:05:23.524Z,0.00
2019-02-27T00:06:23.493Z,0.00
2019-02-27T00:07:23.458Z,0.00
2019-02-27T00:08:26.787Z,0.00
2019-02-27T00:09:23.384Z,0.00
2019-02-27T00:10:23.350Z,0.00
2019-02-27T00:11:23.315Z,0.00
2019-02-27T00:12:23.280Z,0.00
2019-02-27T00:13:24.870Z,0.00
2019-02-27T00:14:23.210Z,0.00
2019-02-27T00:15:23.173Z,0.00
2019-02-27T00:16:23.134Z,0.00
2019-02-27T00:17:23.104Z,0.00
2019-02-27T00:18:23.971Z,0.00
2019-02-27T00:19:23.030Z,0.00
2019-02-27T00:20:22.996Z,0.00
2019-02-27T00:21:22.954Z,0.00
2019-02-27T00:22:22.924Z,0.00
2019-02-27T00:23:24.185Z,0.00
2019-02-27T00:24:22.853Z,0.00
2019-02-27T00:25:22.811Z,0.00
2019-02-27T00:26:22.784Z,0.00
2019-02-27T00:27:22.744Z,0.00
2019-02-27T00:28:23.348Z,0.00
2019-02-27T00:29:22.673Z,0.00
2019-02-27T00:30:22.634Z,0.00
2019-02-27T00:31:22.600Z,0.00
2019-02-27T00:32:22.560Z,0.00
2019-02-27T00:33:25.254Z,0.00
2019-02-27T00:34:22.496Z,0.00
2019-02-27T00:35:22.466Z,0.00
2019-02-27T00:36:22.416Z,0.00
2019-02-27T00:37:22.381Z,0.00
2019-02-27T00:38:22.775Z,0.00
2019-02-27T00:39:22.310Z,0.00
2019-02-27T00:40:22.289Z,0.00
2019-02-27T00:41:22.246Z,0.00
2019-02-27T00:42:23.078Z,0.00
2019-02-27T00:43:22.165Z,0.00
2019-02-27T00:44:22.135Z,0.00
2019-02-27T00:45:22.096Z,0.00
2019-02-27T00:46:22.062Z,0.00
2019-02-27T00:47:22.023Z,0.00
2019-02-27T00:48:25.980Z,0.00
2019-02-27T00:49:21.966Z,0.00
2019-02-27T00:50:21.918Z,0.00
2019-02-27T00:51:21.881Z,0.00
2019-02-27T00:52:21.843Z,0.00
2019-02-27T00:53:22.034Z,0.00
2019-02-27T00:54:21.773Z,0.00
2019-02-27T00:55:21.737Z,0.00
2019-02-27T00:56:21.710Z,0.00
2019-02-27T00:57:21.667Z,0.00
2019-02-27T00:58:21.636Z,0.00
2019-02-27T00:59:21.598Z,0.00
2019-02-27T01:00:21.558Z,0.00
2019-02-27T01:01:21.526Z,0.00
2019-02-27T01:02:21.496Z,0.00
2019-02-27T01:03:23.908Z,0.00
2019-02-27T01:04:21.419Z,0.00
2019-02-27T01:05:21.387Z,0.00
2019-02-27T01:06:21.342Z,0.00
2019-02-27T01:07:21.468Z,0.00
2019-02-27T01:08:21.282Z,0.00
2019-02-27T01:09:21.244Z,0.00
2019-02-27T01:10:21.197Z,0.00
2019-02-27T01:11:21.172Z,0.00
2019-02-27T01:12:22.897Z,0.00
2019-02-27T01:13:21.102Z,0.00
2019-02-27T01:14:21.063Z,0.00
2019-02-27T01:15:21.027Z,0.00
2019-02-27T01:16:20.987Z,0.00
2019-02-27T01:17:23.742Z,0.00
2019-02-27T01:18:20.919Z,0.00
2019-02-27T01:19:20.889Z,0.00
2019-02-27T01:20:20.844Z,0.00
2019-02-27T01:21:20.812Z,0.00
2019-02-27T01:22:20.776Z,0.00
2019-02-27T01:23:20.734Z,0.00
2019-02-27T01:24:20.700Z,0.00
2019-02-27T01:25:22.912Z,0.00
2019-02-27T01:26:20.625Z,0.00
2019-02-27T01:27:20.598Z,0.00
2019-02-27T01:28:20.558Z,0.00
2019-02-27T01:29:20.538Z,0.00
2019-02-27T01:30:23.892Z,0.00
2019-02-27T01:31:21.963Z,0.00
2019-02-27T01:32:20.413Z,0.00
2019-02-27T01:33:20.375Z,0.00
2019-02-27T01:34:20.345Z,0.00
2019-02-27T01:35:20.300Z,0.00
2019-02-27T01:36:24.228Z,0.00
2019-02-27T01:37:20.234Z,0.00
2019-02-27T01:38:20.198Z,0.00
2019-02-27T01:39:20.164Z,0.00
2019-02-27T01:40:20.133Z,0.00
2019-02-27T01:41:24.424Z,0.00
2019-02-27T01:42:20.055Z,0.00
2019-02-27T01:43:20.019Z,0.00
2019-02-27T01:44:19.978Z,0.00
2019-02-27T01:45:21.047Z,0.00
2019-02-27T01:46:19.915Z,0.00
2019-02-27T01:47:19.874Z,0.00
2019-02-27T01:48:19.831Z,0.00
2019-02-27T01:49:19.809Z,0.00
2019-02-27T01:50:19.932Z,0.00
2019-02-27T01:51:19.737Z,0.00
2019-02-27T01:52:19.686Z,0.00
2019-02-27T01:53:19.659Z,0.00
2019-02-27T01:54:19.619Z,0.00
2019-02-27T01:55:21.725Z,0.00
2019-02-27T01:56:19.549Z,0.00
2019-02-27T01:57:19.509Z,0.00
2019-02-27T01:58:19.474Z,0.00
2019-02-27T01:59:19.442Z,0.00
2019-02-27T02:00:23.023Z,0.00
2019-02-27T02:01:19.362Z,0.00
2019-02-27T02:02:19.326Z,0.00
2019-02-27T02:03:19.300Z,0.00
2019-02-27T02:04:20.295Z,0.00
2019-02-27T02:05:19.225Z,0.00
2019-02-27T02:06:19.240Z,0.00
2019-02-27T02:07:19.155Z,0.00
2019-02-27T02:08:19.105Z,0.00
2019-02-27T02:09:21.248Z,0.00
2019-02-27T02:10:19.036Z,0.00
2019-02-27T02:11:19.001Z,0.00
2019-02-27T02:12:18.971Z,0.00
2019-02-27T02:13:18.936Z,0.00
2019-02-27T02:14:21.066Z,0.00
2019-02-27T02:15:18.866Z,0.00
2019-02-27T02:16:18.828Z,0.00
2019-02-27T02:17:18.788Z,0.00
2019-02-27T02:18:18.773Z,0.00
2019-02-27T02:19:19.010Z,0.00
2019-02-27T02:20:18.683Z,0.00
2019-02-27T02:21:18.641Z,0.00
2019-02-27T02:22:18.613Z,0.00
2019-02-27T02:23:18.575Z,0.00
2019-02-27T02:24:20.899Z,0.00
2019-02-27T02:25:18.506Z,0.00
2019-02-27T02:26:18.465Z,0.00
2019-02-27T02:27:18.432Z,0.00
2019-02-27T02:28:18.392Z,0.00
2019-02-27T02:29:20.385Z,0.00
2019-02-27T02:30:18.318Z,0.00
2019-02-27T02:31:18.285Z,0.00
2019-02-27T02:32:18.302Z,0.00
2019-02-27T02:33:18.209Z,0.00
2019-02-27T02:34:18.178Z,0.00
2019-02-27T02:35:18.139Z,0.00
2019-02-27T02:36:18.101Z,0.00
2019-02-27T02:37:18.061Z,0.00
2019-02-27T02:38:18.022Z,0.00
2019-02-27T02:39:19.258Z,0.00
2019-02-27T02:40:17.959Z,0.00
2019-02-27T02:41:17.920Z,0.00
2019-02-27T02:42:17.888Z,0.00
2019-02-27T02:43:17.847Z,0.00
2019-02-27T02:44:20.667Z,0.00
2019-02-27T02:45:17.780Z,0.00
2019-02-27T02:46:17.730Z,0.00
2019-02-27T02:47:21.034Z,0.00
2019-02-27T02:48:17.659Z,0.00
2019-02-27T02:49:17.635Z,0.00
2019-02-27T02:50:18.455Z,0.00
2019-02-27T02:51:17.555Z,0.00
2019-02-27T02:52:17.520Z,0.00
2019-02-27T02:53:17.483Z,0.00
2019-02-27T02:54:17.454Z,0.00
2019-02-27T02:55:17.397Z,0.00
2019-02-27T02:56:17.375Z,0.00
2019-02-27T02:57:17.335Z,0.00
2019-02-27T02:58:17.308Z,0.00
2019-02-27T02:59:17.263Z,0.00
2019-02-27T03:00:17.232Z,0.00
2019-02-27T03:01:17.185Z,0.00
2019-02-27T03:02:17.155Z,0.00
2019-02-27T03:03:17.116Z,0.00
2019-02-27T03:04:17.078Z,0.00
2019-02-27T03:05:17.044Z,0.00
2019-02-27T03:06:17.009Z,0.00
2019-02-27T03:07:16.971Z,0.00
2019-02-27T03:08:20.095Z,0.00
2019-02-27T03:09:16.899Z,0.00
2019-02-27T03:10:16.860Z,0.00
2019-02-27T03:11:19.065Z,0.00
2019-02-27T03:12:16.793Z,0.00
2019-02-27T03:13:16.749Z,0.00
2019-02-27T03:14:17.590Z,0.00
2019-02-27T03:15:16.682Z,0.00
2019-02-27T03:16:16.647Z,0.00
2019-02-27T03:17:18.292Z,0.00
2019-02-27T03:18:16.565Z,0.00
2019-02-27T03:19:16.533Z,0.00
2019-02-27T03:20:17.643Z,0.00
2019-02-27T03:21:16.466Z,0.00
2019-02-27T03:22:16.426Z,0.00
2019-02-27T03:23:16.490Z,0.00
2019-02-27T03:24:16.345Z,0.00
2019-02-27T03:25:16.312Z,0.00
2019-02-27T03:26:17.647Z,0.00
2019-02-27T03:27:16.244Z,0.00
2019-02-27T03:28:16.195Z,0.00
2019-02-27T03:29:17.351Z,0.00
2019-02-27T03:30:16.130Z,0.00
2019-02-27T03:31:18.587Z,0.00
2019-02-27T03:32:16.053Z,0.00
2019-02-27T03:33:22.842Z,0.00
2019-02-27T03:34:15.985Z,0.00
2019-02-27T03:35:15.943Z,0.00
2019-02-27T03:36:15.905Z,0.00
2019-02-27T03:37:15.875Z,0.00
2019-02-27T03:38:15.826Z,0.00
2019-02-27T03:39:15.797Z,0.00
2019-02-27T03:40:15.766Z,0.00
2019-02-27T03:41:15.726Z,0.00
2019-02-27T03:42:15.682Z,0.00
2019-02-27T03:43:15.651Z,0.00
2019-02-27T03:44:20.234Z,0.00
2019-02-27T03:45:15.568Z,0.00
2019-02-27T03:46:15.545Z,0.00
2019-02-27T03:47:16.737Z,0.00
2019-02-27T03:48:15.473Z,0.00
2019-02-27T03:49:15.426Z,0.00
2019-02-27T03:50:15.753Z,0.00
2019-02-27T03:51:15.351Z,0.00
2019-02-27T03:52:15.318Z,0.00
2019-02-27T03:53:15.274Z,0.00
2019-02-27T03:54:20.905Z,0.00
2019-02-27T03:55:15.205Z,0.00
2019-02-27T03:56:15.167Z,0.00
2019-02-27T03:57:18.951Z,0.00
2019-02-27T03:58:15.096Z,0.00
2019-02-27T03:59:15.047Z,0.00
2019-02-27T04:00:18.324Z,0.00
2019-02-27T04:01:14.991Z,0.00
2019-02-27T04:02:14.947Z,0.00
2019-02-27T04:03:18.262Z,0.00
2019-02-27T04:04:14.883Z,0.00
2019-02-27T04:05:14.837Z,0.00
2019-02-27T04:06:19.637Z,0.00
2019-02-27T04:07:14.773Z,0.00
2019-02-27T04:08:14.738Z,0.00
2019-02-27T04:09:18.812Z,0.00
2019-02-27T04:10:14.659Z,0.00
2019-02-27T04:11:14.618Z,0.00
2019-02-27T04:12:16.580Z,0.00
2019-02-27T04:13:14.537Z,0.00
2019-02-27T04:14:14.515Z,0.00
2019-02-27T04:15:17.725Z,0.00
2019-02-27T04:16:14.507Z,0.00
2019-02-27T04:17:14.396Z,0.00
2019-02-27T04:18:14.349Z,0.00
2019-02-27T04:19:14.318Z,0.00
2019-02-27T04:20:15.514Z,0.00
2019-02-27T04:21:14.254Z,0.00
2019-02-27T04:22:14.208Z,0.00
2019-02-27T04:23:14.174Z,0.00
2019-02-27T04:24:14.140Z,0.00
2019-02-27T04:25:14.091Z,0.00
2019-02-27T04:26:14.062Z,0.00
2019-02-27T04:27:20.201Z,0.00
2019-02-27T04:28:13.981Z,0.00
2019-02-27T04:29:13.948Z,0.00
2019-02-27T04:30:15.023Z,0.00
2019-02-27T04:31:13.883Z,0.00
2019-02-27T04:32:13.842Z,0.00
2019-02-27T04:33:13.805Z,0.00
2019-02-27T04:34:13.765Z,0.00
2019-02-27T04:35:13.727Z,0.00
2019-02-27T04:36:13.684Z,0.00
2019-02-27T04:37:13.650Z,0.00
2019-02-27T04:38:13.614Z,0.00
2019-02-27T04:39:13.579Z,0.00
2019-02-27T04:40:13.542Z,0.00
2019-02-27T04:41:17.803Z,0.00
2019-02-27T04:42:13.460Z,0.00
2019-02-27T04:43:13.429Z,0.00
2019-02-27T04:44:13.394Z,0.00
2019-02-27T04:45:13.355Z,0.00
2019-02-27T04:46:13.315Z,0.00
2019-02-27T04:47:13.284Z,0.00
2019-02-27T04:48:13.249Z,0.00
2019-02-27T04:49:13.214Z,0.00
2019-02-27T04:50:13.165Z,0.00
2019-02-27T04:51:16.862Z,0.00
2019-02-27T04:52:13.098Z,0.00
2019-02-27T04:53:13.061Z,0.00
2019-02-27T04:54:13.018Z,0.00
2019-02-27T04:55:15.494Z,0.00
2019-02-27T04:56:12.944Z,0.00
2019-02-27T04:57:12.914Z,0.00
2019-02-27T04:58:12.864Z,0.00
2019-02-27T04:59:12.846Z,0.00
2019-02-27T05:00:12.799Z,0.00
2019-02-27T05:01:12.763Z,0.00
2019-02-27T05:02:14.544Z,0.00
2019-02-27T05:03:12.686Z,0.00
2019-02-27T05:04:12.646Z,0.00
2019-02-27T05:05:12.609Z,0.00
2019-02-27T05:06:14.488Z,0.00
2019-02-27T05:07:12.540Z,0.00
2019-02-27T05:08:12.495Z,0.00
2019-02-27T05:09:12.823Z,0.00
2019-02-27T05:10:12.421Z,0.00
2019-02-27T05:11:14.160Z,0.00
2019-02-27T05:12:12.356Z,0.00
2019-02-27T05:13:12.320Z,0.00
2019-02-27T05:14:12.284Z,0.00
2019-02-27T05:15:12.250Z,0.00
2019-02-27T05:16:14.122Z,0.00
2019-02-27T05:17:12.171Z,0.00
2019-02-27T05:18:12.120Z,0.00
2019-02-27T05:19:12.091Z,0.00
2019-02-27T05:20:12.692Z,0.00
2019-02-27T05:21:12.020Z,0.00
2019-02-27T05:22:11.978Z,0.00
2019-02-27T05:23:11.941Z,0.00
2019-02-27T05:24:11.904Z,0.00
2019-02-27T05:25:12.194Z,0.00
2019-02-27T05:26:11.838Z,0.00
2019-02-27T05:27:11.795Z,0.00
2019-02-27T05:28:11.764Z,0.00
2019-02-27T05:29:11.717Z,0.00
2019-02-27T05:30:12.314Z,0.00
2019-02-27T05:31:11.640Z,0.00
2019-02-27T05:32:11.621Z,0.00
2019-02-27T05:33:11.571Z,0.00
2019-02-27T05:34:13.542Z,0.00
2019-02-27T05:35:11.507Z,0.00
2019-02-27T05:36:11.457Z,0.00
2019-02-27T05:37:11.429Z,0.00
2019-02-27T05:38:11.392Z,0.00
2019-02-27T05:39:11.351Z,0.00
2019-02-27T05:40:11.314Z,0.00
2019-02-27T05:41:11.281Z,0.00
2019-02-27T05:42:13.145Z,0.00
2019-02-27T05:43:13.859Z,0.00
2019-02-27T05:44:11.166Z,0.00
2019-02-27T05:45:11.116Z,0.00
2019-02-27T05:46:11.089Z,0.00
2019-02-27T05:47:11.846Z,0.00
2019-02-27T05:48:11.007Z,0.00
2019-02-27T05:49:10.978Z,0.00
2019-02-27T05:50:10.937Z,0.00
2019-02-27T05:51:10.904Z,0.00
2019-02-27T05:52:11.902Z,0.00
2019-02-27T05:53:10.827Z,0.00
2019-02-27T05:54:10.784Z,0.00
2019-02-27T05:55:10.748Z,0.00
2019-02-27T05:56:15.357Z,4.00
2019-02-27T05:57:10.692Z,4.00
2019-02-27T05:58:10.650Z,0.00
2019-02-27T05:59:10.598Z,4.00
2019-02-27T06:00:10.573Z,4.00
2019-02-27T06:01:10.525Z,4.00
2019-02-27T06:02:11.015Z,8.00
2019-02-27T06:03:10.449Z,8.00
2019-02-27T06:04:10.418Z,8.00
2019-02-27T06:05:10.369Z,8.00
2019-02-27T06:06:11.790Z,12.00
2019-02-27T06:07:10.299Z,12.00
2019-02-27T06:08:10.267Z,20.00
2019-02-27T06:09:10.932Z,20.00
2019-02-27T06:10:10.297Z,24.00
2019-02-27T06:11:10.147Z,28.00
2019-02-27T06:12:10.113Z,36.00
2019-02-27T06:13:14.015Z,40.00
2019-02-27T06:14:10.046Z,44.00
2019-02-27T06:15:09.998Z,52.00
2019-02-27T06:16:09.960Z,56.00
2019-02-27T06:17:10.138Z,64.00
2019-02-27T06:18:09.885Z,76.00
2019-02-27T06:19:09.851Z,84.00
2019-02-27T06:20:09.810Z,96.00
2019-02-27T06:21:09.770Z,104.00
2019-02-27T06:22:09.740Z,116.00
2019-02-27T06:23:09.705Z,128.00
2019-02-27T06:24:12.438Z,140.00
2019-02-27T06:25:09.634Z,152.00
2019-02-27T06:26:09.583Z,168.00
2019-02-27T06:27:09.555Z,180.00
2019-02-27T06:28:09.508Z,196.00
2019-02-27T06:29:09.479Z,212.00
2019-02-27T06:30:09.435Z,224.00
2019-02-27T06:31:09.400Z,240.00
2019-02-27T06:32:12.144Z,256.00
2019-02-27T06:33:11.596Z,272.00
2019-02-27T06:34:09.298Z,288.00
2019-02-27T06:35:09.246Z,304.00
2019-02-27T06:36:09.210Z,324.00
2019-02-27T06:37:09.171Z,336.00
2019-02-27T06:38:09.140Z,356.00
2019-02-27T06:39:09.109Z,372.00
2019-02-27T06:40:09.062Z,392.00
2019-02-27T06:41:09.026Z,408.00
2019-02-27T06:42:09.002Z,424.00
2019-02-27T06:43:08.943Z,444.00
2019-02-27T06:44:08.939Z,460.00
2019-02-27T06:45:10.214Z,480.00
2019-02-27T06:46:08.843Z,496.00
2019-02-27T06:47:08.791Z,512.00
2019-02-27T06:48:10.265Z,528.00
2019-02-27T06:49:08.715Z,548.00
2019-02-27T06:50:08.686Z,564.00
2019-02-27T06:51:08.651Z,580.00
2019-02-27T06:52:09.355Z,596.00
2019-02-27T06:53:08.573Z,612.00
2019-02-27T06:54:08.528Z,628.00
2019-02-27T06:55:08.490Z,644.00
2019-02-27T06:56:08.466Z,660.00
2019-02-27T06:57:08.477Z,676.00
2019-02-27T06:58:08.387Z,688.00
2019-02-27T06:59:08.342Z,708.00
2019-02-27T07:00:08.307Z,720.00
2019-02-27T07:01:09.689Z,736.00
2019-02-27T07:02:08.225Z,748.00
2019-02-27T07:03:08.195Z,764.00
2019-02-27T07:04:08.317Z,780.00
2019-02-27T07:05:08.118Z,796.00
2019-02-27T07:06:08.084Z,808.00
2019-02-27T07:07:08.041Z,824.00
2019-02-27T07:08:08.001Z,840.00
2019-02-27T07:09:11.403Z,852.00
2019-02-27T07:10:07.936Z,868.00
2019-02-27T07:11:10.889Z,880.00
2019-02-27T07:12:07.854Z,892.00
2019-02-27T07:13:07.823Z,908.00
2019-02-27T07:14:07.777Z,920.00
2019-02-27T07:15:10.312Z,928.00
2019-02-27T07:16:07.709Z,944.00
2019-02-27T07:17:07.659Z,952.00
2019-02-27T07:18:07.628Z,968.00
2019-02-27T07:19:07.592Z,980.00
2019-02-27T07:20:08.839Z,992.00
2019-02-27T07:21:07.518Z,1000.00
2019-02-27T07:22:09.321Z,1016.00
2019-02-27T07:23:07.444Z,1024.00
2019-02-27T07:24:07.404Z,1036.00
2019-02-27T07:25:07.360Z,1048.00
2019-02-27T07:26:07.327Z,1044.00
2019-02-27T07:27:07.292Z,1072.00
2019-02-27T07:28:09.127Z,1080.00
2019-02-27T07:29:07.216Z,1092.00
2019-02-27T07:30:08.041Z,1104.00
2019-02-27T07:31:07.143Z,1116.00
2019-02-27T07:32:07.114Z,1124.00
2019-02-27T07:33:07.405Z,1136.00
2019-02-27T07:34:07.030Z,1144.00
2019-02-27T07:35:06.993Z,1156.00
2019-02-27T07:36:06.952Z,1168.00
2019-02-27T07:37:06.919Z,1180.00
2019-02-27T07:38:06.879Z,1188.00
2019-02-27T07:39:06.838Z,1200.00
2019-02-27T07:40:08.602Z,1208.00
2019-02-27T07:41:06.774Z,1220.00
2019-02-27T07:42:06.729Z,1228.00
2019-02-27T07:43:06.695Z,1240.00
2019-02-27T07:44:06.649Z,1252.00
2019-02-27T07:45:08.089Z,1264.00
2019-02-27T07:46:06.580Z,1272.00
2019-02-27T07:47:06.540Z,1284.00
2019-02-27T07:48:06.505Z,1292.00
2019-02-27T07:49:06.478Z,1308.00
2019-02-27T07:50:08.736Z,1316.00
2019-02-27T07:51:06.388Z,1324.00
2019-02-27T07:52:06.360Z,1336.00
2019-02-27T07:53:06.323Z,1344.00
2019-02-27T07:54:06.280Z,1356.00
2019-02-27T07:55:18.644Z,1368.00
2019-02-27T07:56:06.209Z,1376.00
2019-02-27T07:57:06.171Z,1388.00
2019-02-27T07:58:06.153Z,1396.00
2019-02-27T07:59:06.101Z,1408.00
2019-02-27T08:00:06.060Z,1416.00
2019-02-27T08:01:06.030Z,1428.00
2019-02-27T08:02:05.992Z,1432.00
2019-02-27T08:03:09.064Z,1440.00
2019-02-27T08:04:05.921Z,1452.00
2019-02-27T08:05:05.885Z,1464.00
2019-02-27T08:06:05.837Z,1472.00
2019-02-27T08:07:05.804Z,1480.00
2019-02-27T08:08:05.768Z,1488.00
2019-02-27T08:09:05.726Z,1500.00
2019-02-27T08:10:05.691Z,1508.00
2019-02-27T08:11:05.672Z,1516.00
2019-02-27T08:12:05.625Z,1528.00
2019-02-27T08:13:05.582Z,1536.00
2019-02-27T08:14:05.550Z,1544.00
2019-02-27T08:15:05.517Z,1556.00
2019-02-27T08:16:05.479Z,1564.00
2019-02-27T08:17:17.023Z,1568.00
2019-02-27T08:18:05.484Z,1580.00
2019-02-27T08:19:05.372Z,1588.00
2019-02-27T08:20:05.335Z,1600.00
2019-02-27T08:21:05.296Z,1608.00
2019-02-27T08:22:05.256Z,1616.00
2019-02-27T08:23:06.832Z,1628.00
2019-02-27T08:24:07.399Z,1640.00
2019-02-27T08:25:05.153Z,1648.00
2019-02-27T08:26:05.712Z,1652.00
2019-02-27T08:27:07.152Z,1664.00
2019-02-27T08:28:05.043Z,1680.00
2019-02-27T08:29:05.005Z,1688.00
2019-02-27T08:30:04.971Z,1696.00
2019-02-27T08:31:04.938Z,1704.00
2019-02-27T08:32:05.586Z,1716.00
2019-02-27T08:33:08.215Z,1724.00
2019-02-27T08:34:04.831Z,1732.00
2019-02-27T08:35:04.788Z,1744.00
2019-02-27T08:36:04.753Z,1756.00
2019-02-27T08:37:04.708Z,1764.00
2019-02-27T08:38:04.686Z,1776.00
2019-02-27T08:39:04.658Z,1784.00
2019-02-27T08:40:04.613Z,1800.00
2019-02-27T08:41:04.568Z,1804.00
2019-02-27T08:42:04.557Z,1812.00
2019-02-27T08:43:04.502Z,1820.00
2019-02-27T08:44:04.468Z,1828.00
2019-02-27T08:45:04.427Z,1840.00
2019-02-27T08:46:04.402Z,1844.00
2019-02-27T08:47:04.450Z,1856.00
2019-02-27T08:48:04.340Z,1864.00
2019-02-27T08:49:04.293Z,1868.00
2019-02-27T08:50:04.262Z,1876.00
2019-02-27T08:51:08.389Z,1888.00
2019-02-27T08:52:04.183Z,1900.00
2019-02-27T08:53:04.149Z,1904.00
2019-02-27T08:54:04.119Z,1912.00
2019-02-27T08:55:05.716Z,1924.00
2019-02-27T08:56:04.053Z,1936.00
2019-02-27T08:57:04.013Z,1940.00
2019-02-27T08:58:03.973Z,1948.00
2019-02-27T08:59:05.874Z,1964.00
2019-02-27T09:00:03.901Z,1964.00
2019-02-27T09:01:03.863Z,1976.00
2019-02-27T09:02:03.830Z,1984.00
2019-02-27T09:03:03.859Z,1992.00
2019-02-27T09:04:03.752Z,2008.00
2019-02-27T09:05:03.730Z,2016.00
2019-02-27T09:06:03.694Z,2028.00
2019-02-27T09:07:03.655Z,2036.00
2019-02-27T09:08:03.619Z,2040.00
2019-02-27T09:09:03.588Z,2056.00
2019-02-27T09:10:03.545Z,2064.00
2019-02-27T09:11:06.545Z,2072.00
2019-02-27T09:12:03.484Z,2080.00
2019-02-27T09:13:05.751Z,2092.00
2019-02-27T09:14:03.409Z,2104.00
2019-02-27T09:15:03.385Z,2116.00
2019-02-27T09:16:03.343Z,2124.00
2019-02-27T09:17:03.306Z,2132.00
2019-02-27T09:18:03.275Z,2140.00
2019-02-27T09:19:03.245Z,2152.00
2019-02-27T09:20:03.211Z,2168.00
2019-02-27T09:21:03.172Z,2176.00
2019-02-27T09:22:03.163Z,2184.00
2019-02-27T09:23:03.109Z,2192.00
2019-02-27T09:24:03.070Z,2208.00
2019-02-27T09:25:03.036Z,2220.00
2019-02-27T09:26:03.543Z,2224.00
2019-02-27T09:27:02.970Z,2236.00
2019-02-27T09:28:03.543Z,2248.00
2019-02-27T09:29:02.901Z,2260.00
2019-02-27T09:30:02.911Z,2272.00
2019-02-27T09:31:04.290Z,2284.00
2019-02-27T09:32:02.804Z,2292.00
2019-02-27T09:33:02.765Z,2308.00
2019-02-27T09:34:02.725Z,2320.00
2019-02-27T09:35:02.702Z,2332.00
2019-02-27T09:36:02.657Z,2344.00
2019-02-27T09:37:02.629Z,2356.00
2019-02-27T09:38:02.590Z,2364.00
2019-02-27T09:39:02.565Z,2376.00
2019-02-27T09:40:05.695Z,2396.00
2019-02-27T09:41:02.497Z,2404.00
2019-02-27T09:42:02.460Z,2416.00
2019-02-27T09:43:02.418Z,2436.00
2019-02-27T09:44:02.390Z,2448.00
2019-02-27T09:45:02.350Z,2460.00
2019-02-27T09:46:02.354Z,2480.00
2019-02-27T09:47:02.290Z,2504.00
2019-02-27T09:48:02.257Z,2512.00
2019-02-27T09:49:06.807Z,2532.00
2019-02-27T09:50:02.190Z,2556.00
2019-02-27T09:51:02.157Z,2568.00
2019-02-27T09:52:02.122Z,2592.00
2019-02-27T09:53:03.694Z,2600.00
2019-02-27T09:54:02.067Z,2624.00
2019-02-27T09:55:02.024Z,2640.00
2019-02-27T09:56:01.990Z,2664.00
2019-02-27T09:57:02.847Z,2704.00
2019-02-27T09:58:01.926Z,3016.00
2019-02-27T09:59:01.896Z,12056.00
2019-02-27T10:00:02.968Z,43456.00
2019-02-27T10:01:03.149Z,98688.00
2019-02-27T10:02:01.804Z,116416.00
2019-02-27T10:03:01.769Z,117152.00
2019-02-27T10:04:01.741Z,118912.00
2019-02-27T10:05:03.377Z,108640.00
2019-02-27T10:06:01.676Z,94400.00
2019-02-27T10:07:01.642Z,110624.00
2019-02-27T10:08:01.628Z,119360.00
2019-02-27T10:09:01.584Z,116032.00
2019-02-27T10:10:01.562Z,115200.00
2019-02-27T10:11:01.530Z,114144.00
2019-02-27T10:12:01.499Z,112832.00
2019-02-27T10:13:03.239Z,113248.00
2019-02-27T10:14:01.453Z,111296.00
2019-02-27T10:15:01.426Z,113984.00
2019-02-27T10:16:01.733Z,115488.00
2019-02-27T10:17:01.391Z,114016.00
2019-02-27T10:18:01.355Z,114976.00
2019-02-27T10:19:01.327Z,116224.00
2019-02-27T10:20:02.712Z,115680.00
2019-02-27T10:21:01.300Z,113376.00
2019-02-27T10:22:01.269Z,115488.00
2019-02-27T10:23:01.249Z,114688.00
2019-02-27T10:24:04.457Z,115072.00
2019-02-27T10:25:01.198Z,117312.00
2019-02-27T10:26:01.178Z,116960.00
2019-02-27T10:27:01.154Z,117344.00
2019-02-27T10:28:04.458Z,115936.00
2019-02-27T10:29:01.118Z,116288.00
2019-02-27T10:30:01.108Z,114624.00
2019-02-27T10:31:01.075Z,113216.00
2019-02-27T10:32:01.387Z,114112.00
2019-02-27T10:33:03.166Z,114976.00
2019-02-27T10:34:01.013Z,114112.00
2019-02-27T10:35:00.992Z,113568.00
2019-02-27T10:36:03.669Z,112160.00
2019-02-27T10:37:00.993Z,112256.00
2019-02-27T10:38:00.945Z,112832.00
2019-02-27T10:39:02.061Z,113568.00
2019-02-27T10:40:00.899Z,115232.00
2019-02-27T10:41:00.884Z,114816.00
2019-02-27T10:42:00.865Z,114016.00
2019-02-27T10:43:00.844Z,115072.00
2019-02-27T10:44:00.820Z,112864.00
2019-02-27T10:45:00.811Z,115072.00
2019-02-27T10:46:00.803Z,113344.00
2019-02-27T10:47:00.859Z,112992.00
2019-02-27T10:48:00.755Z,114752.00
2019-02-27T10:49:00.754Z,114656.00
2019-02-27T10:50:02.127Z,113504.00
2019-02-27T10:51:00.714Z,113216.00
2019-02-27T10:52:00.685Z,115232.00
2019-02-27T10:53:00.675Z,113568.00
2019-02-27T10:54:04.644Z,112192.00
2019-02-27T10:55:00.641Z,112416.00
2019-02-27T10:56:00.629Z,111712.00
2019-02-27T10:57:00.602Z,112224.00
2019-02-27T10:58:00.594Z,114240.00
2019-02-27T10:59:00.573Z,116736.00
2019-02-27T11:00:00.564Z,115200.00
2019-02-27T11:01:01.207Z,113280.00
2019-02-27T11:02:00.552Z,111360.00
2019-02-27T11:03:00.510Z,112448.00
2019-02-27T11:04:03.069Z,115744.00
2019-02-27T11:05:00.498Z,113440.00
2019-02-27T11:06:00.461Z,114656.00
2019-02-27T11:07:00.447Z,115808.00
2019-02-27T11:08:00.426Z,115296.00
2019-02-27T11:09:04.481Z,112736.00
2019-02-27T11:10:00.399Z,111776.00
2019-02-27T11:11:00.395Z,112448.00
2019-02-27T11:12:00.370Z,111104.00
2019-02-27T11:13:05.728Z,108800.00
2019-02-27T11:14:00.348Z,111456.00
2019-02-27T11:15:00.331Z,112000.00
2019-02-27T11:16:00.297Z,110944.00
2019-02-27T11:17:02.564Z,110752.00
2019-02-27T11:18:04.261Z,111680.00
2019-02-27T11:19:00.256Z,112768.00
2019-02-27T11:20:00.367Z,110784.00
2019-02-27T11:21:00.227Z,109024.00
2019-02-27T11:22:00.215Z,109632.00
2019-02-27T11:23:00.195Z,106560.00
2019-02-27T11:24:00.181Z,106336.00
2019-02-27T11:25:00.316Z,112192.00
2019-02-27T11:26:00.143Z,111552.00
2019-02-27T11:27:00.135Z,113408.00
2019-02-27T11:28:00.116Z,111936.00
2019-02-27T11:29:00.108Z,113664.00
2019-02-27T11:30:02.904Z,112192.00
2019-02-27T11:31:00.087Z,112064.00
2019-02-27T11:32:00.096Z,110272.00
2019-02-27T11:33:00.046Z,108128.00
2019-02-27T11:34:01.147Z,107520.00
2019-02-27T11:35:00.014Z,108736.00
2019-02-27T11:36:00.001Z,105088.00
2019-02-27T11:36:59.982Z,104064.00
2019-02-27T11:37:59.968Z,108000.00
2019-02-27T11:38:59.968Z,109312.00
2019-02-27T11:39:59.954Z,109408.00
2019-02-27T11:40:59.931Z,108288.00
2019-02-27T11:41:59.908Z,106560.00
2019-02-27T11:43:01.085Z,108256.00
2019-02-27T11:43:59.885Z,107744.00
2019-02-27T11:44:59.862Z,107072.00
2019-02-27T11:45:59.846Z,108032.00
2019-02-27T11:46:59.832Z,105408.00
2019-02-27T11:47:59.815Z,103904.00
2019-02-27T11:49:03.051Z,104512.00
2019-02-27T11:49:59.779Z,103648.00
2019-02-27T11:50:59.777Z,105280.00
2019-02-27T11:51:59.749Z,105024.00
2019-02-27T11:53:02.829Z,106272.00
2019-02-27T11:53:59.724Z,105792.00
2019-02-27T11:54:59.708Z,105088.00
2019-02-27T11:55:59.698Z,105312.00
2019-02-27T11:56:59.683Z,103936.00
2019-02-27T11:58:04.507Z,101632.00
2019-02-27T11:58:59.637Z,99552.00
2019-02-27T11:59:59.628Z,99808.00
2019-02-27T12:00:59.609Z,99968.00
2019-02-27T12:01:59.618Z,98720.00
2019-02-27T12:02:59.590Z,97920.00
2019-02-27T12:03:59.568Z,97760.00
2019-02-27T12:04:59.553Z,97632.00
2019-02-27T12:05:59.547Z,96416.00
2019-02-27T12:06:59.519Z,93920.00
2019-02-27T12:07:59.498Z,92736.00
2019-02-27T12:09:00.306Z,92576.00
2019-02-27T12:09:59.474Z,90912.00
2019-02-27T12:10:59.454Z,90048.00
2019-02-27T12:11:59.434Z,86240.00
2019-02-27T12:13:00.918Z,54912.00
2019-02-27T12:13:59.403Z,25696.00
2019-02-27T12:14:59.383Z,21472.00
2019-02-27T12:15:59.375Z,20512.00
2019-02-27T12:16:59.365Z,19872.00
2019-02-27T12:18:00.434Z,19360.00
2019-02-27T12:18:59.338Z,19296.00
2019-02-27T12:19:59.300Z,18976.00
2019-02-27T12:20:59.283Z,19264.00
2019-02-27T12:22:00.240Z,19040.00
2019-02-27T12:22:59.250Z,17792.00
2019-02-27T12:23:59.238Z,17568.00
2019-02-27T12:24:59.215Z,19488.00
2019-02-27T12:25:59.948Z,20576.00
2019-02-27T12:26:59.184Z,21248.00
2019-02-27T12:27:59.165Z,21376.00
2019-02-27T12:28:59.159Z,21920.00
2019-02-27T12:30:00.114Z,23296.00
2019-02-27T12:30:59.119Z,24384.00
2019-02-27T12:31:59.106Z,24768.00
2019-02-27T12:32:59.079Z,29728.00